createdAt,value
2023-02-17T00:00:33.506Z,19.42
2023-02-17T00:03:00.179Z,19.38
2023-02-17T00:05:27.834Z,19.27
2023-02-17T00:07:54.417Z,18.60
2023-02-17T00:10:21.000Z,18.60
2023-02-17T00:12:47.426Z,19.40
2023-02-17T00:15:13.776Z,18.77
2023-02-17T00:17:40.172Z,18.55
2023-02-17T00:20:07.215Z,18.38
2023-02-17T00:22:33.582Z,18.60
2023-02-17T00:25:00.015Z,18.38
2023-02-17T00:27:26.413Z,19.38
2023-02-17T00:29:52.789Z,17.60
2023-02-17T00:32:19.144Z,17.75
2023-02-17T00:34:45.635Z,17.73
2023-02-17T00:37:11.984Z,18.15
2023-02-17T00:39:38.399Z,17.48
2023-02-17T00:42:04.858Z,17.92
2023-02-17T00:44:31.290Z,16.10
2023-02-17T00:46:57.698Z,16.67
2023-02-17T00:49:26.484Z,16.40
2023-02-17T00:51:53.739Z,17.63
2023-02-17T00:54:20.591Z,17.23
2023-02-17T00:56:47.034Z,16.80
2023-02-17T00:59:13.540Z,17.38
2023-02-17T01:01:40.036Z,16.95
2023-02-17T01:04:06.522Z,18.65
2023-02-17T01:06:36.814Z,18.77
2023-02-17T01:09:05.838Z,17.17
2023-02-17T01:11:33.908Z,16.98
2023-02-17T01:14:01.984Z,17.02
2023-02-17T01:16:34.946Z,17.83
2023-02-17T01:19:07.017Z,18.25
2023-02-17T01:21:34.208Z,17.40
2023-02-17T01:24:02.861Z,17.50
2023-02-17T01:26:31.345Z,17.60
2023-02-17T01:28:58.236Z,17.75
2023-02-17T01:31:27.051Z,18.50
2023-02-17T01:33:56.278Z,18.17
2023-02-17T01:36:23.058Z,16.80
2023-02-17T01:38:49.934Z,17.67
2023-02-17T01:41:18.392Z,17.00
2023-02-17T01:44:04.569Z,17.42
2023-02-17T01:46:34.957Z,16.95
2023-02-17T01:49:04.749Z,16.35
2023-02-17T01:51:38.275Z,17.17
2023-02-17T01:54:11.982Z,16.63
2023-02-17T01:56:42.777Z,16.83
2023-02-17T01:59:16.737Z,16.85
2023-02-17T02:01:43.464Z,15.55
2023-02-17T02:04:10.424Z,17.67
2023-02-17T02:06:40.737Z,15.27
2023-02-17T02:09:10.997Z,16.33
2023-02-17T02:11:37.765Z,16.02
2023-02-17T02:14:06.939Z,16.02
2023-02-17T02:16:46.059Z,16.42
2023-02-17T02:19:18.526Z,16.35
2023-02-17T02:22:20.410Z,16.70
2023-02-17T02:24:55.716Z,16.40
2023-02-17T02:27:32.128Z,17.13
2023-02-17T02:30:30.290Z,16.48
2023-02-17T02:33:06.763Z,15.93
2023-02-17T02:35:55.388Z,16.45
2023-02-17T02:38:21.708Z,14.65
2023-02-17T02:40:53.654Z,15.57
2023-02-17T02:43:20.985Z,16.33
2023-02-17T02:45:48.216Z,16.45
2023-02-17T02:48:14.671Z,15.63
2023-02-17T02:51:12.166Z,16.10
2023-02-17T02:54:02.051Z,15.07
2023-02-17T02:56:53.235Z,16.67
2023-02-17T02:59:45.122Z,15.82
2023-02-17T03:02:39.192Z,15.70
2023-02-17T03:05:11.635Z,15.85
2023-02-17T03:07:44.032Z,16.70
2023-02-17T03:10:10.748Z,17.95
2023-02-17T03:12:38.720Z,17.15
2023-02-17T03:15:22.421Z,17.48
2023-02-17T03:17:48.933Z,16.77
2023-02-17T03:20:15.483Z,18.33
2023-02-17T03:22:46.147Z,17.27
2023-02-17T03:25:12.758Z,17.08
2023-02-17T03:27:39.090Z,16.70
2023-02-17T03:30:06.382Z,17.60
2023-02-17T03:32:33.297Z,17.27
2023-02-17T03:34:59.701Z,18.05
2023-02-17T03:37:26.213Z,16.80
2023-02-17T03:39:52.682Z,17.52
2023-02-17T03:42:19.088Z,17.98
2023-02-17T03:44:45.501Z,17.35
2023-02-17T03:47:11.954Z,19.17
2023-02-17T03:49:40.498Z,18.67
2023-02-17T03:52:06.912Z,17.85
2023-02-17T03:54:33.335Z,17.48
2023-02-17T03:57:01.045Z,17.15
2023-02-17T03:59:28.063Z,17.77
2023-02-17T04:01:54.465Z,17.63
2023-02-17T04:04:20.958Z,17.65
2023-02-17T04:06:47.438Z,16.80
2023-02-17T04:09:13.854Z,16.65
2023-02-17T04:11:40.393Z,17.55
2023-02-17T04:14:06.839Z,18.38
2023-02-17T04:16:33.378Z,17.65
2023-02-17T04:18:59.806Z,16.63
2023-02-17T04:21:26.507Z,16.83
2023-02-17T04:23:55.014Z,17.17
2023-02-17T04:26:21.462Z,17.13
2023-02-17T04:28:47.852Z,18.05
2023-02-17T04:31:14.347Z,17.35
2023-02-17T04:33:40.756Z,16.98
2023-02-17T04:36:07.691Z,17.80
2023-02-17T04:38:35.033Z,18.23
2023-02-17T04:41:02.216Z,18.92
2023-02-17T04:43:29.205Z,17.92
2023-02-17T04:45:56.446Z,18.20
2023-02-17T04:48:23.036Z,18.45
2023-02-17T04:50:49.447Z,18.60
2023-02-17T04:53:16.178Z,18.50
2023-02-17T04:55:42.749Z,18.77
2023-02-17T04:58:10.144Z,18.10
2023-02-17T05:00:36.645Z,17.60
2023-02-17T05:03:03.252Z,17.35
2023-02-17T05:05:29.891Z,17.40
2023-02-17T05:07:56.462Z,16.90
2023-02-17T05:10:24.055Z,17.27
2023-02-17T05:12:50.809Z,16.40
2023-02-17T05:15:17.452Z,16.92
2023-02-17T05:17:44.222Z,17.92
2023-02-17T05:20:11.698Z,16.48
2023-02-17T05:22:38.375Z,15.63
2023-02-17T05:25:05.707Z,15.45
2023-02-17T05:27:32.864Z,15.02
2023-02-17T05:29:59.760Z,15.10
2023-02-17T05:32:26.391Z,14.38
2023-02-17T05:34:53.046Z,14.45
2023-02-17T05:37:19.679Z,14.93
2023-02-17T05:39:46.168Z,15.85
2023-02-17T05:42:12.952Z,15.32
2023-02-17T05:44:39.414Z,14.73
2023-02-17T05:47:06.054Z,15.38
2023-02-17T05:49:32.446Z,16.02
2023-02-17T05:51:59.038Z,15.43
2023-02-17T05:54:25.591Z,15.63
2023-02-17T05:56:52.205Z,15.43
2023-02-17T05:59:18.688Z,14.98
2023-02-17T06:01:45.233Z,15.73
2023-02-17T06:04:11.731Z,14.98
2023-02-17T06:06:38.288Z,16.83
2023-02-17T06:09:04.727Z,16.40
2023-02-17T06:11:31.203Z,16.20
2023-02-17T06:13:57.593Z,16.70
2023-02-17T06:16:24.204Z,16.67
2023-02-17T06:18:50.764Z,17.10
2023-02-17T06:21:17.266Z,17.30
2023-02-17T06:23:43.791Z,18.00
2023-02-17T06:26:10.458Z,18.73
2023-02-17T06:28:36.971Z,18.00
2023-02-17T06:31:03.655Z,18.35
2023-02-17T06:33:30.342Z,17.38
2023-02-17T06:35:56.796Z,17.73
2023-02-17T06:38:23.327Z,18.25
2023-02-17T06:40:49.847Z,17.35
2023-02-17T06:43:16.438Z,18.05
2023-02-17T06:45:43.083Z,18.58
2023-02-17T06:48:09.702Z,17.10
2023-02-17T06:50:36.275Z,17.80
2023-02-17T06:53:02.812Z,15.15
2023-02-17T06:55:29.428Z,15.68
2023-02-17T06:57:55.963Z,14.50
2023-02-17T07:00:22.855Z,13.88
2023-02-17T07:02:49.608Z,13.43
2023-02-17T07:05:16.718Z,13.90
2023-02-17T07:07:43.289Z,13.02
2023-02-17T07:10:10.399Z,12.20
2023-02-17T07:12:36.985Z,12.85
2023-02-17T07:15:03.978Z,13.48
2023-02-17T07:17:30.606Z,12.23
2023-02-17T07:19:57.310Z,12.25
2023-02-17T07:22:25.557Z,11.35
2023-02-17T07:24:52.477Z,10.43
2023-02-17T07:27:19.130Z,11.60
2023-02-17T07:29:45.675Z,10.73
2023-02-17T07:32:12.304Z,10.73
2023-02-17T07:34:38.983Z,10.55
2023-02-17T07:37:05.614Z,10.40
2023-02-17T07:39:32.209Z,9.93
2023-02-17T07:42:00.878Z,9.13
2023-02-17T07:44:28.202Z,10.38
2023-02-17T07:46:54.665Z,10.07
2023-02-17T07:49:21.385Z,10.40
2023-02-17T07:51:47.998Z,9.88
2023-02-17T07:54:14.947Z,8.95
2023-02-17T07:56:41.529Z,10.50
2023-02-17T07:59:09.869Z,10.10
2023-02-17T08:01:36.427Z,9.25
2023-02-17T08:04:03.116Z,10.45
2023-02-17T08:06:29.625Z,12.18
2023-02-17T08:09:14.919Z,11.85
2023-02-17T08:12:01.305Z,11.43
2023-02-17T08:14:29.963Z,11.20
2023-02-17T08:16:57.225Z,11.13
2023-02-17T08:19:27.163Z,11.88
2023-02-17T08:21:56.649Z,12.00
2023-02-17T08:24:23.342Z,11.20
2023-02-17T08:26:50.088Z,11.02
2023-02-17T08:29:17.740Z,11.82
2023-02-17T08:31:44.573Z,11.73
2023-02-17T08:34:12.670Z,11.00
2023-02-17T08:36:39.877Z,11.23
2023-02-17T08:39:12.190Z,12.38
2023-02-17T08:41:39.324Z,10.32
2023-02-17T08:44:12.331Z,11.95
2023-02-17T08:49:06.807Z,11.65
2023-02-17T08:51:34.274Z,12.00
2023-02-17T08:54:02.598Z,11.20
2023-02-17T08:56:29.993Z,13.38
2023-02-17T08:58:56.854Z,12.77
2023-02-17T09:01:23.987Z,12.40
2023-02-17T09:03:51.945Z,12.90
2023-02-17T09:06:19.663Z,12.80
2023-02-17T09:08:46.333Z,12.50
2023-02-17T09:11:15.439Z,13.82
2023-02-17T09:13:42.373Z,13.25
2023-02-17T09:16:09.574Z,13.90
2023-02-17T09:18:36.801Z,13.20
2023-02-17T09:21:12.021Z,14.40
2023-02-17T09:23:39.078Z,13.45
2023-02-17T09:26:08.504Z,14.82
2023-02-17T09:28:36.197Z,14.60
2023-02-17T09:31:20.231Z,14.23
2023-02-17T09:33:47.932Z,13.65
2023-02-17T09:36:17.732Z,13.95
2023-02-17T09:38:44.519Z,14.40
2023-02-17T09:41:26.375Z,14.30
2023-02-17T09:43:55.171Z,14.10
2023-02-17T09:46:26.385Z,13.27
2023-02-17T09:48:56.308Z,14.48
2023-02-17T09:51:31.578Z,14.70
2023-02-17T09:54:05.824Z,14.38
2023-02-17T09:56:41.351Z,14.23
2023-02-17T09:59:45.329Z,14.85
2023-02-17T10:02:24.134Z,15.18
2023-02-17T10:04:54.280Z,14.90
2023-02-17T10:07:30.496Z,14.88
2023-02-17T10:10:22.763Z,14.27
2023-02-17T10:12:54.964Z,14.95
2023-02-17T10:15:29.262Z,14.43
2023-02-17T10:18:26.433Z,14.23
2023-02-17T10:21:02.154Z,13.82
2023-02-17T10:23:29.509Z,13.45
2023-02-17T10:26:28.255Z,13.68
2023-02-17T10:29:00.654Z,14.18
2023-02-17T10:31:44.973Z,13.60
2023-02-17T10:34:47.012Z,14.15
2023-02-17T10:37:45.293Z,13.85
2023-02-17T10:40:24.019Z,12.85
2023-02-17T10:42:56.684Z,12.60
2023-02-17T10:45:36.120Z,12.98
2023-02-17T10:48:06.809Z,12.45
2023-02-17T10:50:35.448Z,12.68
2023-02-17T10:56:08.360Z,12.88
2023-02-17T10:58:45.018Z,12.68
2023-02-17T11:01:12.947Z,12.23
2023-02-17T11:03:43.314Z,12.25
2023-02-17T11:06:20.813Z,12.15
2023-02-17T11:09:00.693Z,12.07
2023-02-17T11:11:36.269Z,12.88
2023-02-17T11:14:08.725Z,12.75
2023-02-17T11:16:35.248Z,12.48
2023-02-17T11:19:02.858Z,11.88
2023-02-17T11:21:30.617Z,12.52
2023-02-17T11:24:03.509Z,11.73
2023-02-17T11:26:35.093Z,12.60
2023-02-17T11:29:16.203Z,12.60
2023-02-17T11:31:42.821Z,11.98
2023-02-17T11:34:21.524Z,12.32
2023-02-17T11:36:58.985Z,12.82
2023-02-17T11:39:25.489Z,11.60
2023-02-17T11:41:52.002Z,11.25
2023-02-17T11:44:27.073Z,12.10
2023-02-17T11:47:01.988Z,11.93
2023-02-17T11:49:56.129Z,12.55
2023-02-17T11:52:25.664Z,11.45
2023-02-17T11:55:16.537Z,10.98
2023-02-17T11:57:46.332Z,11.13
2023-02-17T12:00:47.667Z,12.00
2023-02-17T12:03:41.939Z,11.18
2023-02-17T12:06:13.391Z,10.60
2023-02-17T12:09:04.998Z,10.30
2023-02-17T12:11:59.666Z,11.10
2023-02-17T12:15:07.378Z,11.98
2023-02-17T12:17:54.688Z,10.25
2023-02-17T12:20:38.992Z,10.23
2023-02-17T12:23:36.305Z,9.05
2023-02-17T12:26:40.535Z,8.75
2023-02-17T12:29:25.594Z,7.80
2023-02-17T12:32:00.918Z,6.30
2023-02-17T12:34:39.693Z,7.53
2023-02-17T12:37:10.949Z,6.97
2023-02-17T12:39:49.845Z,6.95
2023-02-17T12:42:27.255Z,6.18
2023-02-17T12:45:00.000Z,6.88
2023-02-17T12:47:39.043Z,6.88
2023-02-17T12:50:20.964Z,6.30
2023-02-17T12:52:51.702Z,7.18
2023-02-17T12:55:25.063Z,6.20
2023-02-17T12:57:57.009Z,6.00
2023-02-17T13:00:44.108Z,6.75
2023-02-17T13:03:10.966Z,5.97
2023-02-17T13:05:40.470Z,5.68
2023-02-17T13:08:08.479Z,6.40
2023-02-17T13:10:37.415Z,5.97
2023-02-17T13:13:03.874Z,5.88
2023-02-17T13:15:36.493Z,5.78
2023-02-17T13:18:11.531Z,5.70
2023-02-17T13:20:51.000Z,5.20
2023-02-17T13:23:45.963Z,5.50
2023-02-17T13:26:22.533Z,6.30
2023-02-17T13:28:51.655Z,6.18
2023-02-17T13:31:22.532Z,6.32
2023-02-17T13:33:58.285Z,5.47
2023-02-17T13:36:27.746Z,6.03
2023-02-17T13:38:57.182Z,6.65
2023-02-17T13:41:23.850Z,6.05
2023-02-17T13:43:50.469Z,6.50
2023-02-17T13:46:24.568Z,6.10
2023-02-17T13:49:06.783Z,5.80
2023-02-17T13:51:34.414Z,6.05
2023-02-17T13:54:08.594Z,6.85
2023-02-17T13:56:35.248Z,6.30
2023-02-17T13:59:27.928Z,5.88
2023-02-17T14:01:55.095Z,7.13
2023-02-17T14:04:23.566Z,6.80
2023-02-17T14:06:51.175Z,7.72
2023-02-17T14:09:22.810Z,7.50
2023-02-17T14:11:51.000Z,7.25
2023-02-17T14:14:18.350Z,6.93
2023-02-17T14:16:45.437Z,6.57
2023-02-17T14:19:18.135Z,7.38
2023-02-17T14:21:59.720Z,6.60
2023-02-17T14:24:35.520Z,6.72
2023-02-17T14:27:08.190Z,7.18
2023-02-17T14:29:52.541Z,7.13
2023-02-17T14:32:26.430Z,6.82
2023-02-17T14:34:53.081Z,6.35
2023-02-17T14:37:24.958Z,6.78
2023-02-17T14:39:51.438Z,7.20
2023-02-17T14:42:18.103Z,6.70
2023-02-17T14:44:45.052Z,7.20
2023-02-17T14:47:11.552Z,6.28
2023-02-17T14:49:38.053Z,6.70
2023-02-17T14:52:19.982Z,6.30
2023-02-17T14:54:46.862Z,6.45
2023-02-17T14:57:15.183Z,6.13
2023-02-17T14:59:44.014Z,5.97
2023-02-17T15:02:19.285Z,5.70
2023-02-17T15:04:46.480Z,5.60
2023-02-17T15:07:16.188Z,5.60
2023-02-17T15:09:45.692Z,5.82
2023-02-17T15:12:17.912Z,5.28
2023-02-17T15:14:46.005Z,5.87
2023-02-17T15:17:13.765Z,6.03
2023-02-17T15:19:40.760Z,6.07
2023-02-17T15:22:07.519Z,6.55
2023-02-17T15:24:35.070Z,5.60
2023-02-17T15:27:05.901Z,5.40
2023-02-17T15:29:32.715Z,4.93
2023-02-17T15:32:03.991Z,4.53
2023-02-17T15:34:33.010Z,5.07
2023-02-17T15:37:00.416Z,5.25
2023-02-17T15:39:27.387Z,4.72
2023-02-17T15:41:55.615Z,5.15
2023-02-17T15:44:32.751Z,5.20
2023-02-17T15:47:00.545Z,5.30
2023-02-17T15:49:27.047Z,5.63
2023-02-17T15:51:53.504Z,5.82
2023-02-17T15:54:20.081Z,4.97
2023-02-17T15:56:50.355Z,6.20
2023-02-17T15:59:22.022Z,5.35
2023-02-17T16:01:48.926Z,5.43
2023-02-17T16:04:15.682Z,6.35
2023-02-17T16:06:42.293Z,5.80
2023-02-17T16:09:10.312Z,6.03
2023-02-17T16:11:46.731Z,6.05
2023-02-17T16:14:25.047Z,6.18
2023-02-17T16:16:51.820Z,6.38
2023-02-17T16:19:18.280Z,6.70
2023-02-17T16:21:44.731Z,6.35
2023-02-17T16:24:11.188Z,6.38
2023-02-17T16:26:38.452Z,6.10
2023-02-17T16:29:17.732Z,6.25
2023-02-17T16:31:44.958Z,5.93
2023-02-17T16:34:16.279Z,6.20
2023-02-17T16:36:42.938Z,6.70
2023-02-17T16:39:13.473Z,6.63
2023-02-17T16:41:40.328Z,6.75
2023-02-17T16:44:07.858Z,6.85
2023-02-17T16:46:36.864Z,6.22
2023-02-17T16:49:15.518Z,6.13
2023-02-17T16:51:42.167Z,5.82
2023-02-17T16:56:57.352Z,6.78
2023-02-17T16:59:25.592Z,5.93
2023-02-17T17:01:53.601Z,6.47
2023-02-17T17:04:21.514Z,6.05
2023-02-17T17:06:50.734Z,6.38
2023-02-17T17:09:23.166Z,6.38
2023-02-17T17:11:49.858Z,5.60
2023-02-17T17:14:16.508Z,6.00
2023-02-17T17:16:50.733Z,6.65
2023-02-17T17:19:18.127Z,6.07
2023-02-17T17:21:44.560Z,5.90
2023-02-17T17:24:11.098Z,5.93
2023-02-17T17:26:41.498Z,6.05
2023-02-17T17:29:11.441Z,5.63
2023-02-17T17:31:38.578Z,5.63
2023-02-17T17:34:05.957Z,5.88
2023-02-17T17:36:36.373Z,5.53
2023-02-17T17:39:05.286Z,5.00
2023-02-17T17:41:32.348Z,3.60
2023-02-17T17:43:59.157Z,3.40
2023-02-17T17:46:31.465Z,2.63
2023-02-17T17:49:00.088Z,2.38
2023-02-17T17:51:29.017Z,3.17
2023-02-17T17:53:56.008Z,3.45
2023-02-17T17:56:28.519Z,2.30
2023-02-17T17:58:55.907Z,2.80
2023-02-17T18:01:22.856Z,2.88
2023-02-17T18:03:49.890Z,2.60
2023-02-17T18:06:22.975Z,2.60
2023-02-17T18:11:19.786Z,2.08
2023-02-17T18:13:49.548Z,2.70
2023-02-17T18:16:16.959Z,2.47
2023-02-17T18:18:43.487Z,2.38
2023-02-17T18:21:09.881Z,2.60
2023-02-17T18:23:36.536Z,2.70
2023-02-17T18:26:03.072Z,2.78
2023-02-17T18:28:29.569Z,2.53
2023-02-17T18:30:56.922Z,2.47
2023-02-17T18:33:23.622Z,2.97
2023-02-17T18:35:50.397Z,2.42
2023-02-17T18:38:16.912Z,2.65
2023-02-17T18:40:43.391Z,2.53
2023-02-17T18:43:10.113Z,2.70
2023-02-17T18:45:36.907Z,3.17
2023-02-17T18:48:03.509Z,3.42
2023-02-17T18:50:33.112Z,2.90
2023-02-17T18:53:00.356Z,2.97
2023-02-17T18:55:26.907Z,3.03
2023-02-17T18:57:54.094Z,2.90
2023-02-17T19:00:20.804Z,2.30
2023-02-17T19:02:47.632Z,2.72
2023-02-17T19:05:14.753Z,2.50
2023-02-17T19:07:41.337Z,2.17
2023-02-17T19:10:08.525Z,2.22
2023-02-17T19:12:35.275Z,2.80
2023-02-17T19:15:02.197Z,2.10
2023-02-17T19:17:28.960Z,2.30
2023-02-17T19:19:55.393Z,2.42
2023-02-17T19:22:21.917Z,2.00
2023-02-17T19:24:52.330Z,2.10
2023-02-17T19:27:19.542Z,1.77
2023-02-17T19:29:46.408Z,2.53
2023-02-17T19:32:13.198Z,2.08
2023-02-17T19:34:39.692Z,2.53
2023-02-17T19:37:06.289Z,2.20
2023-02-17T19:39:34.907Z,1.70
2023-02-17T19:42:03.032Z,1.98
2023-02-17T19:44:31.211Z,1.83
2023-02-17T19:46:58.214Z,1.70
2023-02-17T19:49:25.026Z,2.08
2023-02-17T19:51:53.461Z,1.90
2023-02-17T19:54:19.919Z,2.35
2023-02-17T19:56:48.293Z,1.73
2023-02-17T19:59:14.872Z,1.88
2023-02-17T20:01:43.289Z,2.00
2023-02-17T20:04:10.008Z,1.85
2023-02-17T20:06:43.058Z,1.75
2023-02-17T20:11:38.655Z,1.90
2023-02-17T20:14:05.483Z,2.00
2023-02-17T20:16:32.529Z,1.95
2023-02-17T20:19:01.882Z,1.90
2023-02-17T20:21:30.404Z,2.20
2023-02-17T20:23:57.623Z,1.83
2023-02-17T20:26:27.442Z,1.50
2023-02-17T20:28:54.794Z,1.70
2023-02-17T20:31:21.615Z,1.75
2023-02-17T20:33:48.606Z,1.70
2023-02-17T20:36:15.243Z,2.10
2023-02-17T20:38:42.184Z,1.95
2023-02-17T20:41:14.012Z,2.05
2023-02-17T20:43:41.131Z,1.65
2023-02-17T20:46:08.074Z,2.10
2023-02-17T20:48:34.682Z,2.22
2023-02-17T20:51:01.342Z,1.73
2023-02-17T20:53:27.895Z,1.77
2023-02-17T20:55:54.571Z,2.35
2023-02-17T20:58:21.104Z,2.20
2023-02-17T21:00:50.849Z,2.17
2023-02-17T21:03:17.481Z,2.13
2023-02-17T21:05:44.199Z,2.45
2023-02-17T21:08:10.698Z,2.00
2023-02-17T21:10:39.874Z,2.15
2023-02-17T21:13:06.398Z,2.10
2023-02-17T21:15:33.506Z,2.63
2023-02-17T21:18:00.045Z,1.75
2023-02-17T21:20:26.642Z,2.00
2023-02-17T21:22:53.068Z,2.10
2023-02-17T21:25:19.694Z,1.88
2023-02-17T21:27:46.183Z,1.65
2023-02-17T21:30:13.326Z,1.77
2023-02-17T21:32:40.181Z,1.50
2023-02-17T21:35:10.377Z,2.03
2023-02-17T21:37:38.844Z,1.73
2023-02-17T21:40:09.558Z,1.70
2023-02-17T21:42:57.992Z,1.90
2023-02-17T21:45:24.954Z,2.03
2023-02-17T21:47:52.129Z,1.95
2023-02-17T21:50:19.426Z,2.10
2023-02-17T21:52:45.942Z,2.20
2023-02-17T21:55:12.436Z,2.30
2023-02-17T21:57:39.019Z,2.03
2023-02-17T22:00:06.212Z,2.10
2023-02-17T22:02:32.735Z,2.35
2023-02-17T22:04:59.237Z,2.50
2023-02-17T22:07:25.716Z,2.17
2023-02-17T22:09:52.221Z,2.10
2023-02-17T22:12:18.718Z,2.00
2023-02-17T22:14:45.122Z,1.88
2023-02-17T22:17:11.549Z,1.80
2023-02-17T22:19:38.159Z,2.03
2023-02-17T22:22:04.633Z,2.25
2023-02-17T22:24:31.292Z,2.40
2023-02-17T22:26:57.929Z,2.10
2023-02-17T22:29:24.504Z,2.30
2023-02-17T22:31:55.643Z,1.88
2023-02-17T22:34:23.608Z,1.95
2023-02-17T22:36:50.136Z,2.30
2023-02-17T22:39:16.647Z,2.10
2023-02-17T22:41:43.116Z,2.33
2023-02-17T22:44:09.683Z,2.53
2023-02-17T22:46:36.244Z,2.55
2023-02-17T22:49:02.983Z,2.90
2023-02-17T22:51:37.069Z,2.22
2023-02-17T22:54:04.390Z,2.70
2023-02-17T22:56:31.316Z,2.17
2023-02-17T22:59:01.063Z,2.60
2023-02-17T23:01:29.200Z,2.38
2023-02-17T23:03:55.826Z,2.20
2023-02-17T23:06:43.127Z,1.63
2023-02-17T23:09:14.436Z,2.60
2023-02-17T23:11:50.123Z,2.55
2023-02-17T23:14:38.368Z,2.58
2023-02-17T23:17:11.121Z,3.25
2023-02-17T23:19:39.411Z,2.35
2023-02-17T23:22:09.635Z,2.42
2023-02-17T23:24:36.004Z,3.10
2023-02-17T23:27:03.249Z,2.58
2023-02-17T23:29:30.931Z,2.38
2023-02-17T23:31:57.804Z,3.00
2023-02-17T23:34:24.279Z,3.55
2023-02-17T23:36:50.767Z,3.25
2023-02-17T23:39:17.220Z,3.88
2023-02-17T23:41:44.068Z,4.25
2023-02-17T23:44:13.088Z,3.67
2023-02-17T23:46:41.339Z,4.38
2023-02-17T23:49:08.011Z,4.10
2023-02-17T23:51:34.545Z,4.53
2023-02-17T23:54:01.288Z,4.53
2023-02-17T23:56:31.886Z,4.47
2023-02-17T23:58:58.621Z,4.82
